sensor_id;sensor_type;location;lat;lon;timestamp;P1;durP1;ratioP1;P2;durP2;ratioP2
38455;SDS011;24237;50.106;20.014;2023-05-02T00:01:32;18.00;;;7.63;;
38455;SDS011;24237;50.106;20.014;2023-05-02T00:03:57;20.40;;;7.80;;
38455;SDS011;24237;50.106;20.014;2023-05-02T00:06:23;18.67;;;8.32;;
38455;SDS011;24237;50.106;20.014;2023-05-02T00:08:49;19.45;;;9.18;;
38455;SDS011;24237;50.106;20.014;2023-05-02T00:11:15;16.55;;;8.23;;
38455;SDS011;24237;50.106;20.014;2023-05-02T00:13:41;17.52;;;8.65;;
38455;SDS011;24237;50.106;20.014;2023-05-02T00:16:07;18.15;;;8.68;;
38455;SDS011;24237;50.106;20.014;2023-05-02T00:18:33;22.10;;;10.05;;
38455;SDS011;24237;50.106;20.014;2023-05-02T00:20:59;28.13;;;9.98;;
38455;SDS011;24237;50.106;20.014;2023-05-02T00:23:25;19.15;;;9.45;;
38455;SDS011;24237;50.106;20.014;2023-05-02T00:25:50;24.35;;;9.80;;
38455;SDS011;24237;50.106;20.014;2023-05-02T00:28:16;22.80;;;9.32;;
38455;SDS011;24237;50.106;20.014;2023-05-02T00:30:43;21.20;;;9.73;;
38455;SDS011;24237;50.106;20.014;2023-05-02T00:33:09;18.80;;;10.30;;
38455;SDS011;24237;50.106;20.014;2023-05-02T00:35:36;23.75;;;9.88;;
38455;SDS011;24237;50.106;20.014;2023-05-02T00:38:02;17.35;;;9.00;;
38455;SDS011;24237;50.106;20.014;2023-05-02T00:40:27;16.42;;;9.43;;
38455;SDS011;24237;50.106;20.014;2023-05-02T00:42:53;20.10;;;8.57;;
38455;SDS011;24237;50.106;20.014;2023-05-02T00:45:18;20.48;;;9.40;;
38455;SDS011;24237;50.106;20.014;2023-05-02T00:47:44;22.30;;;9.82;;
38455;SDS011;24237;50.106;20.014;2023-05-02T00:50:10;24.73;;;9.02;;
38455;SDS011;24237;50.106;20.014;2023-05-02T00:52:36;22.98;;;10.05;;
38455;SDS011;24237;50.106;20.014;2023-05-02T00:55:02;20.27;;;9.70;;
38455;SDS011;24237;50.106;20.014;2023-05-02T00:57:28;17.20;;;9.10;;
38455;SDS011;24237;50.106;20.014;2023-05-02T00:59:54;18.27;;;8.40;;
38455;SDS011;24237;50.106;20.014;2023-05-02T01:02:39;16.33;;;9.20;;
38455;SDS011;24237;50.106;20.014;2023-05-02T01:05:16;21.85;;;9.80;;
38455;SDS011;24237;50.106;20.014;2023-05-02T01:11:02;22.42;;;10.77;;
38455;SDS011;24237;50.106;20.014;2023-05-02T01:13:37;22.48;;;10.65;;
38455;SDS011;24237;50.106;20.014;2023-05-02T01:16:05;22.13;;;10.07;;
38455;SDS011;24237;50.106;20.014;2023-05-02T01:18:35;19.77;;;11.27;;
38455;SDS011;24237;50.106;20.014;2023-05-02T01:21:08;19.60;;;9.82;;
38455;SDS011;24237;50.106;20.014;2023-05-02T01:26:37;21.65;;;9.25;;
38455;SDS011;24237;50.106;20.014;2023-05-02T01:29:29;19.52;;;9.50;;
38455;SDS011;24237;50.106;20.014;2023-05-02T01:31:56;22.70;;;9.38;;
38455;SDS011;24237;50.106;20.014;2023-05-02T01:34:24;21.35;;;10.98;;
38455;SDS011;24237;50.106;20.014;2023-05-02T01:36:52;25.38;;;11.00;;
38455;SDS011;24237;50.106;20.014;2023-05-02T01:39:21;20.38;;;9.93;;
38455;SDS011;24237;50.106;20.014;2023-05-02T01:41:49;22.52;;;10.20;;
38455;SDS011;24237;50.106;20.014;2023-05-02T01:44:17;23.15;;;9.18;;
38455;SDS011;24237;50.106;20.014;2023-05-02T01:46:45;19.77;;;8.93;;
38455;SDS011;24237;50.106;20.014;2023-05-02T01:49:12;22.80;;;9.73;;
38455;SDS011;24237;50.106;20.014;2023-05-02T01:51:47;21.85;;;9.20;;
38455;SDS011;24237;50.106;20.014;2023-05-02T01:54:15;22.70;;;10.57;;
38455;SDS011;24237;50.106;20.014;2023-05-02T01:56:42;19.48;;;10.35;;
38455;SDS011;24237;50.106;20.014;2023-05-02T01:59:10;26.67;;;9.98;;
38455;SDS011;24237;50.106;20.014;2023-05-02T02:01:38;22.35;;;10.23;;
38455;SDS011;24237;50.106;20.014;2023-05-02T02:04:05;23.48;;;12.10;;
38455;SDS011;24237;50.106;20.014;2023-05-02T02:06:33;19.35;;;10.85;;
38455;SDS011;24237;50.106;20.014;2023-05-02T02:08:59;17.70;;;9.82;;
38455;SDS011;24237;50.106;20.014;2023-05-02T02:11:28;20.55;;;10.00;;
38455;SDS011;24237;50.106;20.014;2023-05-02T02:14:21;20.00;;;8.88;;
38455;SDS011;24237;50.106;20.014;2023-05-02T02:16:54;15.88;;;8.60;;
38455;SDS011;24237;50.106;20.014;2023-05-02T02:19:25;19.67;;;9.85;;
38455;SDS011;24237;50.106;20.014;2023-05-02T02:21:53;24.40;;;9.13;;
38455;SDS011;24237;50.106;20.014;2023-05-02T02:24:21;17.33;;;8.50;;
38455;SDS011;24237;50.106;20.014;2023-05-02T02:26:47;16.92;;;8.65;;
38455;SDS011;24237;50.106;20.014;2023-05-02T02:29:13;18.20;;;9.82;;
38455;SDS011;24237;50.106;20.014;2023-05-02T02:31:39;17.25;;;9.25;;
38455;SDS011;24237;50.106;20.014;2023-05-02T02:34:04;25.55;;;10.02;;
38455;SDS011;24237;50.106;20.014;2023-05-02T02:36:39;22.88;;;11.05;;
38455;SDS011;24237;50.106;20.014;2023-05-02T02:42:24;23.02;;;10.10;;
38455;SDS011;24237;50.106;20.014;2023-05-02T02:45:22;22.35;;;8.93;;
38455;SDS011;24237;50.106;20.014;2023-05-02T02:50:37;26.23;;;12.15;;
38455;SDS011;24237;50.106;20.014;2023-05-02T02:53:15;20.63;;;11.75;;
38455;SDS011;24237;50.106;20.014;2023-05-02T02:55:47;21.52;;;10.52;;
38455;SDS011;24237;50.106;20.014;2023-05-02T03:00:56;20.60;;;10.48;;
38455;SDS011;24237;50.106;20.014;2023-05-02T03:03:24;18.85;;;7.82;;
38455;SDS011;24237;50.106;20.014;2023-05-02T03:05:53;20.98;;;9.77;;
38455;SDS011;24237;50.106;20.014;2023-05-02T03:08:21;20.77;;;10.05;;
38455;SDS011;24237;50.106;20.014;2023-05-02T03:10:46;21.88;;;10.38;;
38455;SDS011;24237;50.106;20.014;2023-05-02T03:13:12;20.30;;;10.13;;
38455;SDS011;24237;50.106;20.014;2023-05-02T03:18:12;20.73;;;10.50;;
38455;SDS011;24237;50.106;20.014;2023-05-02T03:20:37;23.90;;;10.60;;
38455;SDS011;24237;50.106;20.014;2023-05-02T03:23:03;27.60;;;10.98;;
38455;SDS011;24237;50.106;20.014;2023-05-02T03:25:29;21.30;;;10.52;;
38455;SDS011;24237;50.106;20.014;2023-05-02T03:27:56;24.00;;;9.68;;
38455;SDS011;24237;50.106;20.014;2023-05-02T03:30:21;23.67;;;9.73;;
38455;SDS011;24237;50.106;20.014;2023-05-02T03:32:47;21.15;;;10.30;;
38455;SDS011;24237;50.106;20.014;2023-05-02T03:35:13;16.42;;;9.27;;
38455;SDS011;24237;50.106;20.014;2023-05-02T03:37:39;19.23;;;9.13;;
38455;SDS011;24237;50.106;20.014;2023-05-02T03:40:04;21.00;;;10.23;;
38455;SDS011;24237;50.106;20.014;2023-05-02T03:42:32;24.73;;;10.95;;
38455;SDS011;24237;50.106;20.014;2023-05-02T03:45:04;22.05;;;10.98;;
38455;SDS011;24237;50.106;20.014;2023-05-02T03:47:30;24.30;;;12.35;;
38455;SDS011;24237;50.106;20.014;2023-05-02T03:49:55;18.42;;;10.40;;
38455;SDS011;24237;50.106;20.014;2023-05-02T03:52:22;32.42;;;14.30;;
38455;SDS011;24237;50.106;20.014;2023-05-02T03:54:48;33.92;;;14.63;;
38455;SDS011;24237;50.106;20.014;2023-05-02T03:57:14;27.42;;;11.77;;
38455;SDS011;24237;50.106;20.014;2023-05-02T03:59:39;21.33;;;11.00;;
38455;SDS011;24237;50.106;20.014;2023-05-02T04:02:06;29.95;;;12.88;;
38455;SDS011;24237;50.106;20.014;2023-05-02T04:04:32;38.60;;;12.90;;
38455;SDS011;24237;50.106;20.014;2023-05-02T04:06:58;40.92;;;11.88;;
38455;SDS011;24237;50.106;20.014;2023-05-02T04:09:24;42.47;;;12.00;;
38455;SDS011;24237;50.106;20.014;2023-05-02T04:11:50;34.67;;;12.63;;
38455;SDS011;24237;50.106;20.014;2023-05-02T04:14:16;43.25;;;12.63;;
38455;SDS011;24237;50.106;20.014;2023-05-02T04:16:46;24.13;;;10.48;;
38455;SDS011;24237;50.106;20.014;2023-05-02T04:19:16;29.85;;;11.95;;
38455;SDS011;24237;50.106;20.014;2023-05-02T04:21:43;31.25;;;11.07;;
38455;SDS011;24237;50.106;20.014;2023-05-02T04:24:09;31.45;;;10.90;;
38455;SDS011;24237;50.106;20.014;2023-05-02T04:26:35;29.67;;;11.85;;
38455;SDS011;24237;50.106;20.014;2023-05-02T04:29:01;29.88;;;10.25;;
38455;SDS011;24237;50.106;20.014;2023-05-02T04:31:26;23.15;;;10.82;;
38455;SDS011;24237;50.106;20.014;2023-05-02T04:33:52;22.67;;;12.05;;
38455;SDS011;24237;50.106;20.014;2023-05-02T04:36:18;22.15;;;12.02;;
38455;SDS011;24237;50.106;20.014;2023-05-02T04:38:43;25.10;;;11.25;;
38455;SDS011;24237;50.106;20.014;2023-05-02T04:41:09;23.60;;;11.30;;
38455;SDS011;24237;50.106;20.014;2023-05-02T04:43:35;22.55;;;10.38;;
38455;SDS011;24237;50.106;20.014;2023-05-02T04:46:01;26.42;;;10.23;;
38455;SDS011;24237;50.106;20.014;2023-05-02T04:48:27;21.48;;;9.88;;
38455;SDS011;24237;50.106;20.014;2023-05-02T04:50:52;22.05;;;10.13;;
38455;SDS011;24237;50.106;20.014;2023-05-02T04:53:20;19.60;;;9.70;;
38455;SDS011;24237;50.106;20.014;2023-05-02T04:55:46;26.10;;;12.93;;
38455;SDS011;24237;50.106;20.014;2023-05-02T04:58:11;18.25;;;10.38;;
38455;SDS011;24237;50.106;20.014;2023-05-02T05:00:37;22.25;;;10.57;;
38455;SDS011;24237;50.106;20.014;2023-05-02T05:03:03;29.13;;;10.80;;
38455;SDS011;24237;50.106;20.014;2023-05-02T05:05:30;23.13;;;10.52;;
38455;SDS011;24237;50.106;20.014;2023-05-02T05:07:56;23.48;;;10.80;;
38455;SDS011;24237;50.106;20.014;2023-05-02T05:10:21;20.80;;;11.05;;
38455;SDS011;24237;50.106;20.014;2023-05-02T05:12:47;22.80;;;10.40;;
38455;SDS011;24237;50.106;20.014;2023-05-02T05:15:14;21.42;;;11.15;;
38455;SDS011;24237;50.106;20.014;2023-05-02T05:17:39;23.40;;;10.57;;
38455;SDS011;24237;50.106;20.014;2023-05-02T05:20:06;27.77;;;11.48;;
38455;SDS011;24237;50.106;20.014;2023-05-02T05:22:40;24.77;;;10.05;;
38455;SDS011;24237;50.106;20.014;2023-05-02T05:25:09;29.58;;;9.38;;
38455;SDS011;24237;50.106;20.014;2023-05-02T05:27:37;26.42;;;10.35;;
38455;SDS011;24237;50.106;20.014;2023-05-02T05:30:04;26.95;;;11.27;;
38455;SDS011;24237;50.106;20.014;2023-05-02T05:32:31;23.85;;;9.95;;
38455;SDS011;24237;50.106;20.014;2023-05-02T05:34:57;28.25;;;10.77;;
38455;SDS011;24237;50.106;20.014;2023-05-02T05:37:23;19.60;;;10.00;;
38455;SDS011;24237;50.106;20.014;2023-05-02T05:39:48;21.08;;;9.73;;
38455;SDS011;24237;50.106;20.014;2023-05-02T05:42:14;18.90;;;10.52;;
38455;SDS011;24237;50.106;20.014;2023-05-02T05:44:39;29.27;;;9.85;;
38455;SDS011;24237;50.106;20.014;2023-05-02T05:47:05;21.63;;;10.38;;
38455;SDS011;24237;50.106;20.014;2023-05-02T05:49:31;22.75;;;9.32;;
38455;SDS011;24237;50.106;20.014;2023-05-02T05:51:56;27.67;;;9.60;;
38455;SDS011;24237;50.106;20.014;2023-05-02T05:54:22;29.15;;;9.95;;
38455;SDS011;24237;50.106;20.014;2023-05-02T05:56:48;43.10;;;10.90;;
38455;SDS011;24237;50.106;20.014;2023-05-02T05:59:14;33.72;;;11.20;;
38455;SDS011;24237;50.106;20.014;2023-05-02T06:01:42;47.55;;;11.15;;
38455;SDS011;24237;50.106;20.014;2023-05-02T06:04:08;26.63;;;9.73;;
38455;SDS011;24237;50.106;20.014;2023-05-02T06:06:34;34.92;;;9.10;;
38455;SDS011;24237;50.106;20.014;2023-05-02T06:09:00;36.55;;;8.90;;
38455;SDS011;24237;50.106;20.014;2023-05-02T06:11:25;27.58;;;7.15;;
38455;SDS011;24237;50.106;20.014;2023-05-02T06:13:51;20.20;;;7.70;;
38455;SDS011;24237;50.106;20.014;2023-05-02T06:16:17;13.60;;;5.47;;
38455;SDS011;24237;50.106;20.014;2023-05-02T06:18:44;13.70;;;4.68;;
38455;SDS011;24237;50.106;20.014;2023-05-02T06:21:10;12.63;;;4.32;;
38455;SDS011;24237;50.106;20.014;2023-05-02T06:23:35;10.55;;;4.55;;
38455;SDS011;24237;50.106;20.014;2023-05-02T06:26:02;10.75;;;3.65;;
38455;SDS011;24237;50.106;20.014;2023-05-02T06:28:28;9.17;;;4.23;;
38455;SDS011;24237;50.106;20.014;2023-05-02T06:31:02;10.00;;;4.20;;
38455;SDS011;24237;50.106;20.014;2023-05-02T06:33:29;10.02;;;3.70;;
38455;SDS011;24237;50.106;20.014;2023-05-02T06:35:56;6.93;;;3.40;;
38455;SDS011;24237;50.106;20.014;2023-05-02T06:38:23;8.35;;;3.67;;
38455;SDS011;24237;50.106;20.014;2023-05-02T06:40:48;7.50;;;3.75;;
38455;SDS011;24237;50.106;20.014;2023-05-02T06:43:14;8.55;;;3.67;;
38455;SDS011;24237;50.106;20.014;2023-05-02T06:45:41;12.30;;;4.03;;
38455;SDS011;24237;50.106;20.014;2023-05-02T06:48:07;8.73;;;3.53;;
38455;SDS011;24237;50.106;20.014;2023-05-02T06:50:33;8.52;;;3.45;;
38455;SDS011;24237;50.106;20.014;2023-05-02T06:52:59;9.23;;;3.70;;
38455;SDS011;24237;50.106;20.014;2023-05-02T06:55:24;6.47;;;3.17;;
38455;SDS011;24237;50.106;20.014;2023-05-02T06:57:51;7.18;;;3.70;;
38455;SDS011;24237;50.106;20.014;2023-05-02T07:00:17;12.63;;;3.70;;
38455;SDS011;24237;50.106;20.014;2023-05-02T07:02:44;9.03;;;3.67;;
38455;SDS011;24237;50.106;20.014;2023-05-02T07:05:10;8.85;;;3.88;;
38455;SDS011;24237;50.106;20.014;2023-05-02T07:07:35;6.68;;;3.47;;
38455;SDS011;24237;50.106;20.014;2023-05-02T07:10:01;8.32;;;3.80;;
38455;SDS011;24237;50.106;20.014;2023-05-02T07:12:28;8.83;;;3.30;;
38455;SDS011;24237;50.106;20.014;2023-05-02T07:14:53;9.88;;;3.58;;
38455;SDS011;24237;50.106;20.014;2023-05-02T07:17:19;12.05;;;3.85;;
38455;SDS011;24237;50.106;20.014;2023-05-02T07:19:45;7.57;;;3.60;;
38455;SDS011;24237;50.106;20.014;2023-05-02T07:22:11;10.65;;;3.20;;
38455;SDS011;24237;50.106;20.014;2023-05-02T07:24:40;11.55;;;3.10;;
38455;SDS011;24237;50.106;20.014;2023-05-02T07:27:07;10.45;;;2.75;;
38455;SDS011;24237;50.106;20.014;2023-05-02T07:29:33;7.93;;;2.90;;
38455;SDS011;24237;50.106;20.014;2023-05-02T07:31:59;9.65;;;2.63;;
38455;SDS011;24237;50.106;20.014;2023-05-02T07:34:25;5.45;;;2.55;;
38455;SDS011;24237;50.106;20.014;2023-05-02T07:36:50;10.93;;;2.40;;
38455;SDS011;24237;50.106;20.014;2023-05-02T07:39:16;4.97;;;2.40;;
38455;SDS011;24237;50.106;20.014;2023-05-02T07:41:42;10.47;;;2.63;;
38455;SDS011;24237;50.106;20.014;2023-05-02T07:44:08;7.35;;;1.85;;
38455;SDS011;24237;50.106;20.014;2023-05-02T07:46:34;4.55;;;2.15;;
38455;SDS011;24237;50.106;20.014;2023-05-02T07:48:59;4.55;;;2.97;;
38455;SDS011;24237;50.106;20.014;2023-05-02T07:51:25;12.85;;;2.10;;
38455;SDS011;24237;50.106;20.014;2023-05-02T07:53:51;5.45;;;2.10;;
38455;SDS011;24237;50.106;20.014;2023-05-02T07:56:21;5.25;;;1.95;;
38455;SDS011;24237;50.106;20.014;2023-05-02T07:58:46;7.25;;;2.40;;
38455;SDS011;24237;50.106;20.014;2023-05-02T08:01:12;3.08;;;2.00;;
38455;SDS011;24237;50.106;20.014;2023-05-02T08:03:38;8.75;;;2.30;;
38455;SDS011;24237;50.106;20.014;2023-05-02T08:06:03;8.10;;;2.50;;
38455;SDS011;24237;50.106;20.014;2023-05-02T08:08:29;5.45;;;2.40;;
38455;SDS011;24237;50.106;20.014;2023-05-02T08:10:55;4.80;;;2.15;;
38455;SDS011;24237;50.106;20.014;2023-05-02T08:13:20;3.63;;;2.00;;
38455;SDS011;24237;50.106;20.014;2023-05-02T08:15:46;5.07;;;2.53;;
38455;SDS011;24237;50.106;20.014;2023-05-02T08:18:11;6.57;;;2.88;;
38455;SDS011;24237;50.106;20.014;2023-05-02T08:20:37;5.90;;;2.40;;
38455;SDS011;24237;50.106;20.014;2023-05-02T08:23:03;3.50;;;2.17;;
38455;SDS011;24237;50.106;20.014;2023-05-02T08:25:28;3.55;;;2.13;;
38455;SDS011;24237;50.106;20.014;2023-05-02T08:27:54;6.35;;;2.28;;
38455;SDS011;24237;50.106;20.014;2023-05-02T08:30:20;4.50;;;2.63;;
38455;SDS011;24237;50.106;20.014;2023-05-02T08:32:45;65.65;;;6.78;;
38455;SDS011;24237;50.106;20.014;2023-05-02T08:35:11;6.28;;;2.45;;
38455;SDS011;24237;50.106;20.014;2023-05-02T08:37:37;5.68;;;2.03;;
38455;SDS011;24237;50.106;20.014;2023-05-02T08:40:03;7.57;;;2.73;;
38455;SDS011;24237;50.106;20.014;2023-05-02T08:42:30;6.18;;;2.22;;
38455;SDS011;24237;50.106;20.014;2023-05-02T08:47:22;7.57;;;2.22;;
38455;SDS011;24237;50.106;20.014;2023-05-02T08:49:52;6.03;;;2.55;;
38455;SDS011;24237;50.106;20.014;2023-05-02T08:52:19;3.97;;;2.60;;
38455;SDS011;24237;50.106;20.014;2023-05-02T08:54:46;4.28;;;2.33;;
38455;SDS011;24237;50.106;20.014;2023-05-02T08:57:12;7.20;;;2.95;;
38455;SDS011;24237;50.106;20.014;2023-05-02T08:59:38;7.43;;;2.67;;
38455;SDS011;24237;50.106;20.014;2023-05-02T09:02:04;5.55;;;2.45;;
38455;SDS011;24237;50.106;20.014;2023-05-02T09:04:51;8.27;;;2.30;;
38455;SDS011;24237;50.106;20.014;2023-05-02T09:07:18;6.78;;;2.92;;
38455;SDS011;24237;50.106;20.014;2023-05-02T09:09:44;4.80;;;2.55;;
38455;SDS011;24237;50.106;20.014;2023-05-02T09:12:09;7.70;;;3.00;;
38455;SDS011;24237;50.106;20.014;2023-05-02T09:14:35;9.80;;;4.13;;
38455;SDS011;24237;50.106;20.014;2023-05-02T09:17:01;8.88;;;2.80;;
38455;SDS011;24237;50.106;20.014;2023-05-02T09:19:26;6.43;;;3.30;;
38455;SDS011;24237;50.106;20.014;2023-05-02T09:21:53;5.80;;;3.08;;
38455;SDS011;24237;50.106;20.014;2023-05-02T09:24:25;3.13;;;2.38;;
38455;SDS011;24237;50.106;20.014;2023-05-02T09:26:58;5.13;;;2.90;;
38455;SDS011;24237;50.106;20.014;2023-05-02T09:29:26;7.13;;;3.22;;
38455;SDS011;24237;50.106;20.014;2023-05-02T09:31:54;6.63;;;2.97;;
38455;SDS011;24237;50.106;20.014;2023-05-02T09:34:20;5.38;;;2.83;;
38455;SDS011;24237;50.106;20.014;2023-05-02T09:36:47;5.82;;;2.78;;
38455;SDS011;24237;50.106;20.014;2023-05-02T09:39:22;5.18;;;2.58;;
38455;SDS011;24237;50.106;20.014;2023-05-02T09:41:48;6.55;;;3.20;;
38455;SDS011;24237;50.106;20.014;2023-05-02T09:44:15;3.85;;;2.80;;
38455;SDS011;24237;50.106;20.014;2023-05-02T09:46:46;6.45;;;2.55;;
38455;SDS011;24237;50.106;20.014;2023-05-02T09:49:11;6.18;;;2.45;;
38455;SDS011;24237;50.106;20.014;2023-05-02T09:51:39;4.22;;;2.45;;
38455;SDS011;24237;50.106;20.014;2023-05-02T09:54:07;7.18;;;2.85;;
38455;SDS011;24237;50.106;20.014;2023-05-02T09:56:50;3.70;;;2.28;;
38455;SDS011;24237;50.106;20.014;2023-05-02T09:59:20;4.68;;;2.90;;
38455;SDS011;24237;50.106;20.014;2023-05-02T10:01:53;3.03;;;2.35;;
38455;SDS011;24237;50.106;20.014;2023-05-02T10:04:20;3.67;;;2.55;;
38455;SDS011;24237;50.106;20.014;2023-05-02T10:06:46;4.75;;;2.67;;
38455;SDS011;24237;50.106;20.014;2023-05-02T10:09:15;3.45;;;2.42;;
38455;SDS011;24237;50.106;20.014;2023-05-02T10:11:41;14.13;;;2.92;;
38455;SDS011;24237;50.106;20.014;2023-05-02T10:14:09;9.05;;;2.75;;
38455;SDS011;24237;50.106;20.014;2023-05-02T10:19:09;4.90;;;2.42;;
38455;SDS011;24237;50.106;20.014;2023-05-02T10:21:41;5.82;;;2.53;;
38455;SDS011;24237;50.106;20.014;2023-05-02T10:24:08;4.03;;;2.73;;
38455;SDS011;24237;50.106;20.014;2023-05-02T10:26:34;3.45;;;2.40;;
38455;SDS011;24237;50.106;20.014;2023-05-02T10:29:00;3.57;;;2.43;;
38455;SDS011;24237;50.106;20.014;2023-05-02T10:31:26;2.95;;;2.28;;
38455;SDS011;24237;50.106;20.014;2023-05-02T10:33:57;7.80;;;2.50;;
38455;SDS011;24237;50.106;20.014;2023-05-02T10:36:25;8.10;;;2.28;;
38455;SDS011;24237;50.106;20.014;2023-05-02T10:38:52;5.72;;;2.25;;
38455;SDS011;24237;50.106;20.014;2023-05-02T10:41:22;3.13;;;2.00;;
38455;SDS011;24237;50.106;20.014;2023-05-02T10:43:50;4.13;;;2.10;;
38455;SDS011;24237;50.106;20.014;2023-05-02T10:51:34;17.10;;;5.15;;
38455;SDS011;24237;50.106;20.014;2023-05-02T10:59:40;2.83;;;2.40;;
38455;SDS011;24237;50.106;20.014;2023-05-02T11:07:31;5.85;;;3.15;;
38455;SDS011;24237;50.106;20.014;2023-05-02T11:12:44;3.10;;;2.72;;
38455;SDS011;24237;50.106;20.014;2023-05-02T11:15:12;7.00;;;3.17;;
38455;SDS011;24237;50.106;20.014;2023-05-02T11:20:25;5.28;;;2.72;;
38455;SDS011;24237;50.106;20.014;2023-05-02T11:22:53;3.63;;;2.90;;
38455;SDS011;24237;50.106;20.014;2023-05-02T11:25:29;3.22;;;2.42;;
38455;SDS011;24237;50.106;20.014;2023-05-02T11:27:56;11.90;;;2.95;;
38455;SDS011;24237;50.106;20.014;2023-05-02T11:30:43;5.70;;;3.10;;
38455;SDS011;24237;50.106;20.014;2023-05-02T11:33:12;3.17;;;2.60;;
38455;SDS011;24237;50.106;20.014;2023-05-02T11:35:41;4.43;;;2.70;;
38455;SDS011;24237;50.106;20.014;2023-05-02T11:38:09;3.10;;;2.70;;
38455;SDS011;24237;50.106;20.014;2023-05-02T11:40:36;4.85;;;2.85;;
38455;SDS011;24237;50.106;20.014;2023-05-02T11:43:11;4.00;;;2.85;;
38455;SDS011;24237;50.106;20.014;2023-05-02T11:45:38;3.75;;;2.50;;
38455;SDS011;24237;50.106;20.014;2023-05-02T11:48:04;6.20;;;3.17;;
38455;SDS011;24237;50.106;20.014;2023-05-02T11:50:31;4.80;;;2.92;;
38455;SDS011;24237;50.106;20.014;2023-05-02T11:52:58;4.07;;;2.88;;
38455;SDS011;24237;50.106;20.014;2023-05-02T11:55:24;5.63;;;2.80;;
38455;SDS011;24237;50.106;20.014;2023-05-02T11:57:49;3.40;;;2.65;;
38455;SDS011;24237;50.106;20.014;2023-05-02T12:00:15;5.65;;;2.70;;
38455;SDS011;24237;50.106;20.014;2023-05-02T12:02:43;3.35;;;2.72;;
38455;SDS011;24237;50.106;20.014;2023-05-02T12:05:11;3.17;;;2.60;;
38455;SDS011;24237;50.106;20.014;2023-05-02T12:07:38;3.13;;;2.55;;
38455;SDS011;24237;50.106;20.014;2023-05-02T12:10:13;4.07;;;2.60;;
38455;SDS011;24237;50.106;20.014;2023-05-02T12:12:39;3.75;;;2.50;;
38455;SDS011;24237;50.106;20.014;2023-05-02T12:15:05;4.28;;;2.88;;
38455;SDS011;24237;50.106;20.014;2023-05-02T12:17:33;5.07;;;2.42;;
38455;SDS011;24237;50.106;20.014;2023-05-02T12:20:03;4.18;;;2.50;;
38455;SDS011;24237;50.106;20.014;2023-05-02T12:22:30;3.70;;;2.30;;
38455;SDS011;24237;50.106;20.014;2023-05-02T12:24:56;7.72;;;2.80;;
38455;SDS011;24237;50.106;20.014;2023-05-02T12:27:22;4.07;;;2.60;;
38455;SDS011;24237;50.106;20.014;2023-05-02T12:29:48;9.00;;;2.70;;
38455;SDS011;24237;50.106;20.014;2023-05-02T12:32:14;9.48;;;3.25;;
38455;SDS011;24237;50.106;20.014;2023-05-02T12:34:50;3.63;;;2.40;;
38455;SDS011;24237;50.106;20.014;2023-05-02T12:37:20;4.43;;;2.40;;
38455;SDS011;24237;50.106;20.014;2023-05-02T12:39:48;4.82;;;2.67;;
38455;SDS011;24237;50.106;20.014;2023-05-02T12:42:14;3.45;;;2.70;;
38455;SDS011;24237;50.106;20.014;2023-05-02T12:44:41;7.63;;;4.07;;
38455;SDS011;24237;50.106;20.014;2023-05-02T12:47:08;4.15;;;2.58;;
38455;SDS011;24237;50.106;20.014;2023-05-02T12:49:48;4.00;;;2.40;;
38455;SDS011;24237;50.106;20.014;2023-05-02T12:52:17;5.05;;;2.28;;
38455;SDS011;24237;50.106;20.014;2023-05-02T12:55:17;5.57;;;2.60;;
38455;SDS011;24237;50.106;20.014;2023-05-02T12:57:58;4.43;;;2.42;;
38455;SDS011;24237;50.106;20.014;2023-05-02T13:00:36;4.93;;;2.92;;
38455;SDS011;24237;50.106;20.014;2023-05-02T13:03:03;4.65;;;2.90;;
38455;SDS011;24237;50.106;20.014;2023-05-02T13:05:30;5.60;;;3.00;;
38455;SDS011;24237;50.106;20.014;2023-05-02T13:07:56;9.70;;;2.83;;
38455;SDS011;24237;50.106;20.014;2023-05-02T13:10:22;10.68;;;2.85;;
38455;SDS011;24237;50.106;20.014;2023-05-02T13:12:50;4.72;;;2.50;;
38455;SDS011;24237;50.106;20.014;2023-05-02T13:15:16;5.07;;;3.03;;
38455;SDS011;24237;50.106;20.014;2023-05-02T13:17:42;6.00;;;2.40;;
38455;SDS011;24237;50.106;20.014;2023-05-02T13:20:09;8.48;;;5.18;;
38455;SDS011;24237;50.106;20.014;2023-05-02T13:22:35;10.95;;;3.20;;
38455;SDS011;24237;50.106;20.014;2023-05-02T13:25:04;4.72;;;2.70;;
38455;SDS011;24237;50.106;20.014;2023-05-02T13:27:30;5.65;;;2.83;;
38455;SDS011;24237;50.106;20.014;2023-05-02T13:32:23;6.47;;;3.20;;
38455;SDS011;24237;50.106;20.014;2023-05-02T13:34:49;8.95;;;3.00;;
38455;SDS011;24237;50.106;20.014;2023-05-02T13:37:15;5.43;;;2.90;;
38455;SDS011;24237;50.106;20.014;2023-05-02T13:39:41;7.65;;;3.83;;
38455;SDS011;24237;50.106;20.014;2023-05-02T13:42:06;6.95;;;3.65;;
38455;SDS011;24237;50.106;20.014;2023-05-02T13:44:32;11.20;;;4.10;;
38455;SDS011;24237;50.106;20.014;2023-05-02T13:46:58;10.43;;;4.10;;
38455;SDS011;24237;50.106;20.014;2023-05-02T13:49:23;7.18;;;4.03;;
38455;SDS011;24237;50.106;20.014;2023-05-02T13:51:49;7.60;;;4.18;;
38455;SDS011;24237;50.106;20.014;2023-05-02T13:54:15;18.08;;;6.25;;
38455;SDS011;24237;50.106;20.014;2023-05-02T13:56:40;7.35;;;4.15;;
38455;SDS011;24237;50.106;20.014;2023-05-02T13:59:06;5.97;;;3.80;;
38455;SDS011;24237;50.106;20.014;2023-05-02T14:01:32;11.00;;;4.10;;
38455;SDS011;24237;50.106;20.014;2023-05-02T14:04:01;11.18;;;4.95;;
38455;SDS011;24237;50.106;20.014;2023-05-02T14:06:32;9.63;;;5.45;;
38455;SDS011;24237;50.106;20.014;2023-05-02T14:09:00;16.05;;;6.35;;
38455;SDS011;24237;50.106;20.014;2023-05-02T14:11:26;20.67;;;6.95;;
38455;SDS011;24237;50.106;20.014;2023-05-02T14:13:52;7.40;;;5.40;;
38455;SDS011;24237;50.106;20.014;2023-05-02T14:16:18;10.55;;;5.95;;
38455;SDS011;24237;50.106;20.014;2023-05-02T14:18:43;9.15;;;5.35;;
38455;SDS011;24237;50.106;20.014;2023-05-02T14:21:14;10.50;;;5.70;;
38455;SDS011;24237;50.106;20.014;2023-05-02T14:23:40;11.85;;;6.18;;
38455;SDS011;24237;50.106;20.014;2023-05-02T14:26:05;9.45;;;5.78;;
38455;SDS011;24237;50.106;20.014;2023-05-02T14:28:31;8.80;;;5.22;;
38455;SDS011;24237;50.106;20.014;2023-05-02T14:30:57;11.68;;;5.10;;
38455;SDS011;24237;50.106;20.014;2023-05-02T14:33:22;6.35;;;3.47;;
38455;SDS011;24237;50.106;20.014;2023-05-02T14:35:48;9.50;;;4.35;;
38455;SDS011;24237;50.106;20.014;2023-05-02T14:38:14;9.98;;;4.85;;
38455;SDS011;24237;50.106;20.014;2023-05-02T14:40:39;8.85;;;5.28;;
38455;SDS011;24237;50.106;20.014;2023-05-02T14:43:05;7.40;;;4.95;;
38455;SDS011;24237;50.106;20.014;2023-05-02T14:45:30;6.80;;;4.03;;
38455;SDS011;24237;50.106;20.014;2023-05-02T14:47:56;5.72;;;3.67;;
38455;SDS011;24237;50.106;20.014;2023-05-02T14:50:22;5.93;;;3.80;;
38455;SDS011;24237;50.106;20.014;2023-05-02T14:52:48;9.98;;;4.72;;
38455;SDS011;24237;50.106;20.014;2023-05-02T14:55:14;5.85;;;4.53;;
38455;SDS011;24237;50.106;20.014;2023-05-02T14:57:39;7.95;;;4.60;;
38455;SDS011;24237;50.106;20.014;2023-05-02T15:00:06;13.15;;;3.70;;
38455;SDS011;24237;50.106;20.014;2023-05-02T15:02:32;8.43;;;3.35;;
38455;SDS011;24237;50.106;20.014;2023-05-02T15:04:58;4.30;;;2.83;;
38455;SDS011;24237;50.106;20.014;2023-05-02T15:07:24;3.60;;;2.67;;
38455;SDS011;24237;50.106;20.014;2023-05-02T15:09:50;6.13;;;3.72;;
38455;SDS011;24237;50.106;20.014;2023-05-02T15:12:16;4.25;;;2.92;;
38455;SDS011;24237;50.106;20.014;2023-05-02T15:14:41;7.18;;;3.15;;